createdAt,value
2023-04-17T00:01:41.535Z,28.65
2023-04-17T00:04:11.236Z,29.05
2023-04-17T00:06:38.450Z,27.23
2023-04-17T00:09:05.203Z,29.33
2023-04-17T00:11:32.054Z,31.20
2023-04-17T00:13:58.785Z,28.00
2023-04-17T00:16:27.134Z,30.85
2023-04-17T00:18:55.091Z,30.73
2023-04-17T00:21:21.944Z,29.25
2023-04-17T00:23:48.565Z,28.88
2023-04-17T00:26:15.814Z,28.10
2023-04-17T00:28:42.438Z,27.70
2023-04-17T00:31:09.134Z,29.45
2023-04-17T00:33:35.934Z,29.25
2023-04-17T00:36:02.500Z,27.92
2023-04-17T00:38:29.047Z,31.48
2023-04-17T00:40:55.654Z,32.85
2023-04-17T00:43:22.353Z,27.73
2023-04-17T00:45:49.594Z,29.55
2023-04-17T00:48:18.202Z,31.90
2023-04-17T00:50:45.524Z,32.70
2023-04-17T00:53:13.502Z,31.92
2023-04-17T00:55:41.662Z,32.17
2023-04-17T00:58:08.961Z,33.63
2023-04-17T01:00:35.615Z,30.58
2023-04-17T01:03:02.805Z,36.42
2023-04-17T01:05:29.691Z,33.25
2023-04-17T01:07:58.054Z,33.75
2023-04-17T01:10:25.216Z,36.72
2023-04-17T01:13:05.839Z,33.92
2023-04-17T01:15:33.165Z,35.05
2023-04-17T01:18:00.237Z,36.55
2023-04-17T01:20:29.988Z,36.70
2023-04-17T01:22:58.205Z,34.33
2023-04-17T01:25:25.865Z,31.02
2023-04-17T01:27:52.674Z,43.08
2023-04-17T01:30:19.688Z,35.83
2023-04-17T01:32:46.478Z,40.63
2023-04-17T01:35:13.475Z,39.60
2023-04-17T01:37:40.199Z,42.10
2023-04-17T01:40:07.718Z,42.60
2023-04-17T01:42:34.942Z,40.80
2023-04-17T01:45:01.531Z,41.85
2023-04-17T01:47:28.381Z,42.28
2023-04-17T01:49:54.972Z,41.03
2023-04-17T01:52:21.749Z,41.10
2023-04-17T01:54:48.396Z,44.28
2023-04-17T01:57:16.115Z,40.00
2023-04-17T01:59:42.714Z,39.20
2023-04-17T02:02:09.405Z,43.63
2023-04-17T02:04:36.173Z,42.15
2023-04-17T02:07:02.894Z,39.63
2023-04-17T02:09:29.454Z,38.40
2023-04-17T02:11:56.849Z,41.65
2023-04-17T02:14:23.597Z,40.78
2023-04-17T02:16:51.336Z,40.65
2023-04-17T02:19:17.972Z,42.92
2023-04-17T02:21:44.528Z,42.90
2023-04-17T02:24:11.122Z,38.25
2023-04-17T02:26:38.544Z,44.55
2023-04-17T02:29:05.287Z,41.33
2023-04-17T02:31:32.105Z,41.42
2023-04-17T02:33:58.833Z,47.88
2023-04-17T02:36:26.374Z,42.70
2023-04-17T02:38:53.030Z,41.45
2023-04-17T02:41:19.650Z,47.10
2023-04-17T02:43:46.939Z,45.78
2023-04-17T02:46:13.694Z,48.25
2023-04-17T02:48:40.530Z,46.28
2023-04-17T02:51:07.209Z,42.42
2023-04-17T02:53:33.993Z,40.25
2023-04-17T02:56:00.691Z,46.38
2023-04-17T02:58:27.345Z,42.20
2023-04-17T03:01:03.240Z,49.45
2023-04-17T03:03:35.009Z,49.55
2023-04-17T03:06:02.782Z,48.90
2023-04-17T03:08:32.550Z,46.88
2023-04-17T03:10:59.708Z,47.40
2023-04-17T03:13:26.328Z,48.30
2023-04-17T03:15:52.874Z,43.70
2023-04-17T03:18:19.477Z,48.17
2023-04-17T03:20:46.202Z,48.03
2023-04-17T03:23:12.830Z,44.88
2023-04-17T03:25:39.542Z,50.97
2023-04-17T03:28:06.233Z,44.22
2023-04-17T03:30:33.426Z,53.47
2023-04-17T03:33:00.239Z,43.25
2023-04-17T03:35:27.753Z,44.42
2023-04-17T03:37:54.623Z,45.90
2023-04-17T03:40:21.304Z,45.40
2023-04-17T03:42:48.487Z,50.13
2023-04-17T03:45:16.808Z,51.38
2023-04-17T03:47:43.622Z,45.40
2023-04-17T03:50:10.764Z,47.70
2023-04-17T03:52:38.575Z,48.55
2023-04-17T03:55:05.864Z,45.60
2023-04-17T03:57:32.670Z,48.95
2023-04-17T03:59:59.433Z,48.67
2023-04-17T04:02:26.351Z,49.15
2023-04-17T04:04:53.724Z,42.90
2023-04-17T04:07:21.380Z,51.08
2023-04-17T04:09:48.336Z,43.50
2023-04-17T04:12:15.229Z,47.70
2023-04-17T04:14:42.175Z,46.80
2023-04-17T04:17:08.866Z,42.60
2023-04-17T04:19:35.819Z,45.47
2023-04-17T04:22:03.359Z,44.95
2023-04-17T04:24:31.634Z,42.20
2023-04-17T04:27:04.623Z,47.60
2023-04-17T04:29:32.178Z,44.65
2023-04-17T04:31:59.401Z,46.65
2023-04-17T04:34:29.442Z,48.80
2023-04-17T04:36:56.912Z,45.90
2023-04-17T04:39:23.638Z,52.75
2023-04-17T04:41:51.482Z,43.15
2023-04-17T04:44:27.280Z,48.35
2023-04-17T04:46:55.429Z,48.88
2023-04-17T04:49:23.283Z,44.97
2023-04-17T04:51:50.050Z,48.05
2023-04-17T04:54:16.791Z,47.03
2023-04-17T04:56:44.932Z,51.30
2023-04-17T04:59:12.091Z,46.35
2023-04-17T05:01:39.783Z,47.75
2023-04-17T05:04:06.574Z,49.70
2023-04-17T05:06:33.374Z,48.67
2023-04-17T05:09:00.036Z,51.38
2023-04-17T05:11:26.633Z,53.72
2023-04-17T05:13:53.335Z,50.55
2023-04-17T05:16:20.020Z,47.38
2023-04-17T05:18:47.934Z,47.13
2023-04-17T05:21:14.532Z,47.80
2023-04-17T05:23:41.931Z,46.55
2023-04-17T05:26:08.651Z,47.60
2023-04-17T05:28:35.532Z,48.45
2023-04-17T05:31:02.288Z,48.92
2023-04-17T05:33:28.873Z,46.90
2023-04-17T05:35:56.282Z,43.63
2023-04-17T05:38:23.391Z,45.22
2023-04-17T05:40:53.285Z,43.70
2023-04-17T05:43:19.934Z,43.42
2023-04-17T05:45:47.583Z,38.15
2023-04-17T05:48:14.359Z,38.33
2023-04-17T05:50:41.133Z,43.78
2023-04-17T05:53:07.992Z,42.15
2023-04-17T05:55:34.666Z,45.45
2023-04-17T05:58:10.413Z,40.25
2023-04-17T06:00:48.961Z,36.55
2023-04-17T06:03:18.204Z,36.47
2023-04-17T06:05:47.010Z,37.05
2023-04-17T06:08:13.896Z,36.88
2023-04-17T06:10:40.608Z,34.38
2023-04-17T06:13:07.265Z,39.88
2023-04-17T06:15:33.930Z,36.83
2023-04-17T06:18:00.627Z,38.67
2023-04-17T06:20:27.427Z,35.30
2023-04-17T06:22:54.111Z,40.58
2023-04-17T06:25:21.061Z,36.55
2023-04-17T06:27:47.808Z,37.92
2023-04-17T06:30:14.549Z,35.03
2023-04-17T06:32:42.935Z,38.55
2023-04-17T06:35:11.165Z,36.70
2023-04-17T06:37:37.802Z,35.53
2023-04-17T06:40:05.327Z,35.97
2023-04-17T06:42:35.163Z,34.03
2023-04-17T06:45:02.134Z,34.10
2023-04-17T06:47:29.117Z,37.88
2023-04-17T06:49:57.864Z,39.22
2023-04-17T06:52:24.633Z,34.30
2023-04-17T06:54:55.196Z,35.58
2023-04-17T06:57:22.215Z,35.10
2023-04-17T06:59:48.950Z,36.45
2023-04-17T07:02:16.457Z,41.45
2023-04-17T07:04:43.453Z,39.97
2023-04-17T07:07:11.073Z,33.60
2023-04-17T07:09:37.883Z,36.90
2023-04-17T07:12:04.842Z,33.22
2023-04-17T07:14:31.427Z,34.75
2023-04-17T07:16:58.084Z,36.63
2023-04-17T07:19:24.863Z,38.42
2023-04-17T07:21:51.961Z,36.55
2023-04-17T07:24:18.535Z,32.10
2023-04-17T07:26:45.101Z,34.47
2023-04-17T07:29:12.033Z,33.30
2023-04-17T07:31:38.912Z,32.80
2023-04-17T07:34:05.559Z,32.03
2023-04-17T07:36:32.345Z,32.33
2023-04-17T07:38:58.940Z,32.25
2023-04-17T07:41:25.531Z,32.20
2023-04-17T07:43:52.218Z,34.78
2023-04-17T07:46:18.907Z,33.65
2023-04-17T07:48:46.395Z,34.20
2023-04-17T07:51:13.053Z,34.08
2023-04-17T07:53:40.068Z,29.60
2023-04-17T07:56:06.949Z,32.88
2023-04-17T07:58:35.629Z,36.38
2023-04-17T08:01:08.435Z,33.65
2023-04-17T08:03:35.320Z,34.80
2023-04-17T08:06:02.290Z,31.60
2023-04-17T08:08:28.888Z,32.95
2023-04-17T08:10:55.570Z,34.75
2023-04-17T08:13:22.204Z,35.40
2023-04-17T08:15:49.051Z,39.30
2023-04-17T08:18:15.821Z,37.72
2023-04-17T08:20:42.870Z,34.72
2023-04-17T08:23:09.476Z,30.85
2023-04-17T08:25:36.330Z,34.72
2023-04-17T08:28:03.127Z,25.40
2023-04-17T08:30:29.692Z,24.95
2023-04-17T08:32:57.466Z,27.92
2023-04-17T08:35:25.424Z,25.52
2023-04-17T08:37:52.113Z,22.90
2023-04-17T08:40:21.354Z,27.33
2023-04-17T08:42:48.255Z,25.27
2023-04-17T08:45:14.980Z,23.50
2023-04-17T08:47:42.988Z,20.40
2023-04-17T08:50:15.377Z,23.65
2023-04-17T08:52:43.559Z,21.92
2023-04-17T08:55:16.662Z,22.23
2023-04-17T08:58:04.324Z,25.52
2023-04-17T09:00:32.405Z,26.08
2023-04-17T09:03:00.270Z,22.55
2023-04-17T09:05:33.257Z,22.38
2023-04-17T09:08:07.464Z,18.90
2023-04-17T09:10:43.124Z,15.25
2023-04-17T09:13:12.091Z,14.10
2023-04-17T09:15:38.807Z,12.38
2023-04-17T09:18:05.676Z,12.90
2023-04-17T09:20:32.785Z,12.10
2023-04-17T09:23:02.537Z,13.20
2023-04-17T09:25:29.597Z,13.52
2023-04-17T09:28:14.667Z,10.98
2023-04-17T09:30:42.117Z,9.88
2023-04-17T09:33:10.638Z,9.38
2023-04-17T09:35:39.858Z,6.93
2023-04-17T09:38:07.138Z,6.90
2023-04-17T09:40:39.774Z,6.00
2023-04-17T09:43:09.918Z,8.18
2023-04-17T09:45:41.324Z,5.43
2023-04-17T09:48:10.147Z,5.00
2023-04-17T09:50:38.663Z,3.60
2023-04-17T09:53:07.937Z,3.58
2023-04-17T09:55:37.414Z,3.35
2023-04-17T09:58:06.243Z,3.35
2023-04-17T10:00:32.995Z,4.65
2023-04-17T10:03:00.318Z,3.08
2023-04-17T10:05:29.233Z,3.50
2023-04-17T10:07:56.713Z,3.53
2023-04-17T10:10:24.316Z,2.20
2023-04-17T10:12:54.163Z,3.33
2023-04-17T10:15:22.677Z,3.42
2023-04-17T10:17:49.963Z,2.63
2023-04-17T10:20:23.172Z,2.63
2023-04-17T10:22:56.141Z,2.35
2023-04-17T10:25:27.260Z,4.00
2023-04-17T10:27:58.440Z,2.53
2023-04-17T10:30:46.236Z,2.97
2023-04-17T10:33:12.978Z,3.53
2023-04-17T10:35:39.717Z,2.70
2023-04-17T10:38:07.756Z,2.92
2023-04-17T10:40:38.711Z,3.58
2023-04-17T10:43:13.269Z,2.80
2023-04-17T10:46:02.007Z,3.15
2023-04-17T10:48:34.886Z,2.47
2023-04-17T10:51:21.662Z,2.83
2023-04-17T10:53:56.076Z,3.03
2023-04-17T10:56:46.135Z,2.47
2023-04-17T10:59:14.966Z,3.25
2023-04-17T11:01:49.572Z,2.45
2023-04-17T11:04:34.123Z,1.80
2023-04-17T11:07:01.240Z,2.90
2023-04-17T11:09:29.615Z,2.50
2023-04-17T11:11:59.915Z,2.88
2023-04-17T11:14:27.865Z,4.07
2023-04-17T11:16:55.817Z,2.80
2023-04-17T11:19:24.757Z,2.47
2023-04-17T11:21:53.922Z,3.33
2023-04-17T11:24:28.234Z,2.78
2023-04-17T11:26:56.620Z,4.27
2023-04-17T11:29:25.194Z,2.85
2023-04-17T11:31:56.246Z,2.75
2023-04-17T11:34:23.134Z,3.97
2023-04-17T11:36:58.398Z,2.95
2023-04-17T11:39:28.705Z,3.55
2023-04-17T11:41:57.131Z,2.78
2023-04-17T11:44:26.157Z,4.80
2023-04-17T11:46:54.661Z,3.20
2023-04-17T11:49:29.452Z,5.75
2023-04-17T11:51:58.836Z,7.90
2023-04-17T11:54:37.195Z,6.20
2023-04-17T11:57:14.502Z,4.45
2023-04-17T11:59:47.322Z,4.70
2023-04-17T12:02:15.075Z,4.00
2023-04-17T12:04:42.165Z,3.80
2023-04-17T12:07:22.880Z,5.28
2023-04-17T12:09:57.596Z,3.58
2023-04-17T12:12:24.272Z,3.45
2023-04-17T12:14:51.391Z,3.22
2023-04-17T12:17:17.965Z,3.38
2023-04-17T12:19:45.261Z,6.03
2023-04-17T12:22:11.939Z,3.55
2023-04-17T12:24:38.560Z,4.82
2023-04-17T12:27:05.350Z,4.30
2023-04-17T12:29:42.999Z,4.72
2023-04-17T12:32:11.316Z,3.58
2023-04-17T12:34:38.013Z,4.30
2023-04-17T12:37:04.683Z,3.42
2023-04-17T12:39:32.653Z,3.60
2023-04-17T12:41:59.209Z,3.35
2023-04-17T12:44:25.994Z,3.33
2023-04-17T12:46:52.640Z,4.07
2023-04-17T12:49:20.376Z,2.85
2023-04-17T12:51:47.035Z,3.53
2023-04-17T12:54:13.894Z,3.47
2023-04-17T12:56:40.824Z,3.30
2023-04-17T12:59:07.459Z,3.08
2023-04-17T13:01:34.147Z,4.15
2023-04-17T13:04:01.111Z,4.78
2023-04-17T13:06:28.111Z,4.38
2023-04-17T13:08:54.872Z,3.60
2023-04-17T13:11:21.944Z,3.58
2023-04-17T13:13:48.674Z,7.28
2023-04-17T13:16:15.349Z,3.63
2023-04-17T13:18:42.076Z,4.70
2023-04-17T13:21:09.273Z,5.30
2023-04-17T13:23:35.943Z,6.70
2023-04-17T13:26:02.655Z,5.38
2023-04-17T13:28:29.228Z,6.20
2023-04-17T13:30:56.030Z,5.45
2023-04-17T13:33:22.842Z,4.20
2023-04-17T13:35:50.996Z,4.32
2023-04-17T13:38:17.615Z,5.07
2023-04-17T13:40:44.265Z,6.10
2023-04-17T13:43:11.564Z,4.50
2023-04-17T13:46:03.281Z,5.78
2023-04-17T13:48:32.771Z,4.40
2023-04-17T13:50:59.612Z,4.22
2023-04-17T13:53:32.307Z,5.30
2023-04-17T13:56:03.294Z,4.00
2023-04-17T13:58:30.036Z,4.07
2023-04-17T14:00:56.781Z,4.13
2023-04-17T14:03:32.449Z,5.30
2023-04-17T14:06:07.859Z,5.45
2023-04-17T14:08:34.616Z,4.82
2023-04-17T14:11:01.668Z,7.68
2023-04-17T14:13:33.639Z,4.50
2023-04-17T14:16:02.819Z,5.78
2023-04-17T14:18:29.686Z,6.35
2023-04-17T14:21:04.094Z,6.25
2023-04-17T14:23:31.052Z,4.35
2023-04-17T14:26:05.967Z,5.25
2023-04-17T14:28:34.691Z,4.22
2023-04-17T14:31:02.809Z,7.72
2023-04-17T14:33:29.642Z,5.22
2023-04-17T14:35:56.772Z,7.95
2023-04-17T14:38:24.217Z,4.90
2023-04-17T14:40:51.729Z,5.20
2023-04-17T14:43:24.419Z,4.65
2023-04-17T14:45:54.372Z,5.07
2023-04-17T14:48:21.035Z,3.40
2023-04-17T14:50:55.199Z,5.03
2023-04-17T14:53:24.236Z,5.30
2023-04-17T14:55:50.997Z,4.88
2023-04-17T14:58:17.607Z,5.28
2023-04-17T15:00:44.525Z,5.30
2023-04-17T15:03:11.566Z,5.20
2023-04-17T15:05:38.343Z,7.93
2023-04-17T15:08:10.448Z,4.85
2023-04-17T15:10:47.919Z,5.18
2023-04-17T15:13:24.729Z,4.88
2023-04-17T15:15:51.341Z,6.35
2023-04-17T15:18:17.985Z,5.65
2023-04-17T15:20:52.822Z,3.97
2023-04-17T15:23:19.953Z,6.00
2023-04-17T15:25:54.065Z,7.38
2023-04-17T15:28:21.292Z,6.55
2023-04-17T15:30:47.939Z,5.68
2023-04-17T15:33:14.721Z,4.88
2023-04-17T15:35:42.032Z,6.00
2023-04-17T15:38:13.953Z,6.60
2023-04-17T15:40:43.391Z,6.85
2023-04-17T15:43:11.033Z,7.07
2023-04-17T15:45:43.934Z,5.80
2023-04-17T15:48:10.756Z,7.53
2023-04-17T15:50:41.259Z,7.25
2023-04-17T15:53:09.027Z,5.97
2023-04-17T15:55:38.752Z,6.30
2023-04-17T15:58:08.642Z,9.07
2023-04-17T16:00:41.084Z,5.97
2023-04-17T16:03:14.394Z,9.88
2023-04-17T16:05:44.093Z,5.10
2023-04-17T16:08:18.608Z,7.07
2023-04-17T16:10:48.440Z,6.32
2023-04-17T16:13:18.433Z,6.57
2023-04-17T16:15:51.982Z,7.63
2023-04-17T16:18:18.902Z,10.35
2023-04-17T16:20:46.269Z,6.25
2023-04-17T16:23:13.003Z,8.45
2023-04-17T16:25:39.771Z,9.43
2023-04-17T16:28:06.485Z,5.95
2023-04-17T16:30:33.219Z,8.40
2023-04-17T16:32:59.943Z,8.48
2023-04-17T16:35:26.875Z,7.63
2023-04-17T16:37:53.540Z,7.03
2023-04-17T16:40:20.243Z,7.78
2023-04-17T16:42:46.908Z,9.60
2023-04-17T16:45:13.732Z,11.32
2023-04-17T16:47:40.467Z,10.93
2023-04-17T16:50:09.201Z,8.77
2023-04-17T16:52:37.193Z,10.20
2023-04-17T16:55:04.075Z,6.03
2023-04-17T16:57:31.065Z,9.90
2023-04-17T16:59:57.675Z,10.23
2023-04-17T17:02:24.336Z,7.53
2023-04-17T17:04:51.177Z,11.85
2023-04-17T17:07:17.949Z,12.35
2023-04-17T17:09:44.650Z,10.15
2023-04-17T17:12:11.410Z,11.15
2023-04-17T17:14:38.035Z,8.68
2023-04-17T17:17:04.630Z,7.88
2023-04-17T17:19:31.241Z,7.13
2023-04-17T17:21:57.968Z,13.25
2023-04-17T17:24:24.627Z,8.95
2023-04-17T17:26:51.374Z,7.13
2023-04-17T17:29:18.306Z,10.57
2023-04-17T17:31:45.200Z,10.23
2023-04-17T17:34:25.289Z,9.30
2023-04-17T17:36:53.499Z,9.60
2023-04-17T17:39:21.693Z,10.45
2023-04-17T17:41:48.642Z,7.50
2023-04-17T17:44:15.453Z,8.07
2023-04-17T17:46:42.173Z,7.97
2023-04-17T17:49:09.190Z,7.53
2023-04-17T17:51:37.019Z,7.10
2023-04-17T17:54:03.777Z,9.57
2023-04-17T17:56:30.522Z,9.40
2023-04-17T17:58:57.251Z,8.25
2023-04-17T18:01:24.845Z,8.77
2023-04-17T18:03:52.819Z,8.82
2023-04-17T18:06:19.989Z,9.75
2023-04-17T18:08:46.797Z,9.25
2023-04-17T18:11:13.793Z,6.88
2023-04-17T18:13:40.577Z,11.18
2023-04-17T18:16:07.555Z,6.53
2023-04-17T18:18:34.357Z,7.30
2023-04-17T18:21:12.156Z,8.80
2023-04-17T18:23:38.795Z,9.00
2023-04-17T18:26:05.551Z,11.23
2023-04-17T18:28:33.074Z,12.00
2023-04-17T18:30:59.765Z,10.25
2023-04-17T18:33:28.728Z,13.25
2023-04-17T18:35:55.437Z,11.75
2023-04-17T18:38:22.075Z,9.48
2023-04-17T18:40:53.928Z,12.93
2023-04-17T18:43:20.634Z,11.05
2023-04-17T18:45:47.248Z,12.88
2023-04-17T18:48:13.956Z,15.52
2023-04-17T18:50:40.625Z,12.77
2023-04-17T18:53:07.388Z,10.23
2023-04-17T18:55:37.000Z,10.02
2023-04-17T18:58:04.655Z,8.88
2023-04-17T19:00:31.971Z,11.70
2023-04-17T19:02:59.016Z,12.30
2023-04-17T19:05:27.056Z,9.20
2023-04-17T19:07:53.720Z,8.60
2023-04-17T19:10:20.386Z,9.65
2023-04-17T19:12:47.322Z,14.48
2023-04-17T19:15:14.105Z,11.82
2023-04-17T19:17:40.990Z,8.35
2023-04-17T19:20:08.707Z,8.10
2023-04-17T19:22:35.321Z,9.15
2023-04-17T19:25:02.059Z,8.38
2023-04-17T19:27:28.862Z,12.25
2023-04-17T19:29:56.798Z,8.45
2023-04-17T19:32:23.505Z,12.63
2023-04-17T19:34:50.356Z,6.53
2023-04-17T19:37:16.935Z,8.05
2023-04-17T19:39:43.542Z,9.05
2023-04-17T19:42:10.112Z,9.95
2023-04-17T19:44:36.704Z,7.72
2023-04-17T19:47:04.408Z,9.23
2023-04-17T19:49:31.463Z,7.60
2023-04-17T19:51:59.124Z,10.70
2023-04-17T19:54:26.694Z,11.57
2023-04-17T19:56:53.474Z,9.52
2023-04-17T19:59:20.087Z,8.68
2023-04-17T20:01:46.877Z,9.43
2023-04-17T20:04:13.718Z,11.77
2023-04-17T20:06:40.874Z,9.82
2023-04-17T20:09:10.380Z,11.65
2023-04-17T20:11:38.084Z,10.93
2023-04-17T20:14:08.977Z,13.48
2023-04-17T20:16:35.944Z,11.90
2023-04-17T20:19:05.188Z,11.27
2023-04-17T20:21:33.256Z,11.40
2023-04-17T20:24:02.416Z,13.25
2023-04-17T20:26:29.182Z,10.40
2023-04-17T20:28:56.045Z,12.40
2023-04-17T20:31:23.024Z,12.30
2023-04-17T20:33:50.144Z,10.20
2023-04-17T20:36:19.329Z,11.65
2023-04-17T20:38:50.223Z,13.68
2023-04-17T20:41:16.790Z,12.68
2023-04-17T20:43:56.959Z,15.10
2023-04-17T20:46:23.897Z,18.15
2023-04-17T20:48:53.546Z,16.83
2023-04-17T20:51:24.698Z,16.85
2023-04-17T20:53:54.604Z,14.18
2023-04-17T20:56:27.964Z,13.40
2023-04-17T20:58:58.619Z,13.32
2023-04-17T21:01:30.972Z,14.77
2023-04-17T21:03:57.985Z,11.98
2023-04-17T21:06:25.935Z,8.57
2023-04-17T21:08:55.361Z,12.52
2023-04-17T21:11:22.078Z,11.55
2023-04-17T21:13:49.872Z,11.45
2023-04-17T21:16:23.747Z,10.00
2023-04-17T21:18:53.705Z,11.32
2023-04-17T21:21:20.795Z,12.20
2023-04-17T21:23:47.571Z,16.88
2023-04-17T21:26:14.268Z,14.75
2023-04-17T21:28:40.948Z,10.88
2023-04-17T21:31:10.108Z,13.70
2023-04-17T21:33:36.954Z,11.18
2023-04-17T21:36:03.909Z,12.95
2023-04-17T21:38:30.783Z,8.93
2023-04-17T21:40:58.056Z,9.57
2023-04-17T21:43:24.854Z,10.70
2023-04-17T21:45:51.643Z,13.07
2023-04-17T21:48:18.457Z,11.45
2023-04-17T21:50:45.214Z,13.82
2023-04-17T21:53:12.008Z,12.75
2023-04-17T21:55:38.808Z,9.25
2023-04-17T21:58:05.574Z,9.93
2023-04-17T22:00:32.281Z,13.35
2023-04-17T22:02:59.345Z,15.10
2023-04-17T22:05:26.126Z,11.88
2023-04-17T22:07:55.347Z,15.38
2023-04-17T22:10:23.389Z,14.50
2023-04-17T22:12:50.580Z,11.77
2023-04-17T22:15:17.557Z,11.60
2023-04-17T22:17:44.580Z,12.57
2023-04-17T22:20:12.065Z,15.00
2023-04-17T22:22:38.772Z,14.70
2023-04-17T22:25:05.909Z,14.60
2023-04-17T22:27:32.577Z,14.93
2023-04-17T22:29:59.220Z,14.50
2023-04-17T22:32:25.920Z,19.60
2023-04-17T22:34:52.516Z,20.55
2023-04-17T22:37:19.355Z,19.65
2023-04-17T22:39:46.259Z,18.27
2023-04-17T22:42:12.857Z,20.52
2023-04-17T22:44:39.431Z,18.00
2023-04-17T22:47:06.125Z,15.57
2023-04-17T22:49:37.865Z,18.33
2023-04-17T22:52:06.060Z,15.20
2023-04-17T22:54:33.705Z,14.63
2023-04-17T22:57:00.470Z,13.15
2023-04-17T22:59:27.054Z,13.93
2023-04-17T23:01:54.830Z,14.55
2023-04-17T23:04:23.039Z,12.70
2023-04-17T23:06:50.138Z,15.05
2023-04-17T23:09:16.807Z,15.85
2023-04-17T23:11:43.650Z,11.52
2023-04-17T23:14:11.188Z,11.98
2023-04-17T23:16:37.979Z,12.35
2023-04-17T23:19:04.734Z,12.95
2023-04-17T23:21:31.472Z,14.25
2023-04-17T23:23:58.180Z,11.02
2023-04-17T23:26:25.822Z,11.35
2023-04-17T23:28:52.658Z,13.43
2023-04-17T23:31:19.374Z,12.93
2023-04-17T23:33:46.036Z,13.90
2023-04-17T23:36:13.565Z,15.25
2023-04-17T23:38:40.340Z,13.23
2023-04-17T23:41:06.954Z,10.65
2023-04-17T23:43:33.613Z,15.30
2023-04-17T23:46:00.809Z,14.13
2023-04-17T23:48:28.141Z,11.07
2023-04-17T23:50:55.125Z,12.05
2023-04-17T23:53:21.810Z,12.05
2023-04-17T23:55:48.405Z,13.60
2023-04-17T23:58:15.086Z,12.55
